sensor_id;sensor_type;location;lat;lon;timestamp;P1;durP1;ratioP1;P2;durP2;ratioP2
59766;SDS011;46248;58.364;25.582;2024-03-23T00:55:39;0.47;;;0.30;;
59766;SDS011;46248;58.364;25.582;2024-03-23T00:59:01;0.25;;;0.20;;
59766;SDS011;46248;58.364;25.582;2024-03-23T01:02:22;0.10;;;0.10;;
59766;SDS011;46248;58.364;25.582;2024-03-23T01:05:44;0.10;;;0.10;;
59766;SDS011;46248;58.364;25.582;2024-03-23T01:09:05;0.20;;;0.10;;
59766;SDS011;46248;58.364;25.582;2024-03-23T01:12:26;0.20;;;0.08;;
59766;SDS011;46248;58.364;25.582;2024-03-23T01:15:49;0.10;;;0.10;;
59766;SDS011;46248;58.364;25.582;2024-03-23T01:19:11;0.20;;;0.10;;
59766;SDS011;46248;58.364;25.582;2024-03-23T01:22:32;0.10;;;0.10;;
59766;SDS011;46248;58.364;25.582;2024-03-23T01:25:54;0.08;;;0.08;;
59766;SDS011;46248;58.364;25.582;2024-03-23T01:29:15;0.10;;;0.10;;
59766;SDS011;46248;58.364;25.582;2024-03-23T01:32:36;0.08;;;0.08;;
59766;SDS011;46248;58.364;25.582;2024-03-23T01:35:57;0.10;;;0.10;;
59766;SDS011;46248;58.364;25.582;2024-03-23T01:39:19;0.00;;;0.00;;
59766;SDS011;46248;58.364;25.582;2024-03-23T01:42:40;0.20;;;0.10;;
59766;SDS011;46248;58.364;25.582;2024-03-23T01:46:01;0.10;;;0.10;;
59766;SDS011;46248;58.364;25.582;2024-03-23T01:49:22;0.00;;;0.00;;
59766;SDS011;46248;58.364;25.582;2024-03-23T01:52:44;0.00;;;0.00;;
59766;SDS011;46248;58.364;25.582;2024-03-23T01:56:07;0.10;;;0.10;;
59766;SDS011;46248;58.364;25.582;2024-03-23T01:59:28;0.00;;;0.00;;
59766;SDS011;46248;58.364;25.582;2024-03-23T02:02:49;0.00;;;0.00;;
59766;SDS011;46248;58.364;25.582;2024-03-23T02:06:11;0.00;;;0.00;;
59766;SDS011;46248;58.364;25.582;2024-03-23T02:09:33;0.10;;;0.10;;
59766;SDS011;46248;58.364;25.582;2024-03-23T02:12:54;0.00;;;0.00;;
59766;SDS011;46248;58.364;25.582;2024-03-23T02:16:15;0.00;;;0.00;;
59766;SDS011;46248;58.364;25.582;2024-03-23T02:19:37;0.03;;;0.03;;
59766;SDS011;46248;58.364;25.582;2024-03-23T02:22:58;0.00;;;0.00;;
59766;SDS011;46248;58.364;25.582;2024-03-23T02:26:20;0.05;;;0.05;;
59766;SDS011;46248;58.364;25.582;2024-03-23T02:29:42;0.00;;;0.00;;
59766;SDS011;46248;58.364;25.582;2024-03-23T02:33:04;0.10;;;0.10;;
59766;SDS011;46248;58.364;25.582;2024-03-23T02:36:26;0.10;;;0.00;;
59766;SDS011;46248;58.364;25.582;2024-03-23T02:39:48;0.00;;;0.00;;
59766;SDS011;46248;58.364;25.582;2024-03-23T02:43:08;0.00;;;0.00;;
59766;SDS011;46248;58.364;25.582;2024-03-23T02:46:30;0.05;;;0.00;;
59766;SDS011;46248;58.364;25.582;2024-03-23T02:49:52;0.00;;;0.00;;
59766;SDS011;46248;58.364;25.582;2024-03-23T02:53:12;0.13;;;0.00;;
59766;SDS011;46248;58.364;25.582;2024-03-23T02:56:34;0.17;;;0.10;;
59766;SDS011;46248;58.364;25.582;2024-03-23T02:59:56;0.22;;;0.00;;
59766;SDS011;46248;58.364;25.582;2024-03-23T03:03:17;0.73;;;0.10;;
59766;SDS011;46248;58.364;25.582;2024-03-23T03:06:38;0.00;;;0.00;;
59766;SDS011;46248;58.364;25.582;2024-03-23T03:10:01;0.10;;;0.00;;
59766;SDS011;46248;58.364;25.582;2024-03-23T03:13:25;0.00;;;0.00;;
59766;SDS011;46248;58.364;25.582;2024-03-23T03:16:47;0.10;;;0.00;;
59766;SDS011;46248;58.364;25.582;2024-03-23T03:20:09;0.10;;;0.10;;
59766;SDS011;46248;58.364;25.582;2024-03-23T03:23:34;0.25;;;0.00;;
59766;SDS011;46248;58.364;25.582;2024-03-23T03:26:55;0.22;;;0.20;;
59766;SDS011;46248;58.364;25.582;2024-03-23T03:30:17;0.00;;;0.00;;
59766;SDS011;46248;58.364;25.582;2024-03-23T03:33:38;0.00;;;0.00;;
59766;SDS011;46248;58.364;25.582;2024-03-23T03:37:00;0.43;;;0.00;;
59766;SDS011;46248;58.364;25.582;2024-03-23T03:40:20;0.00;;;0.00;;
59766;SDS011;46248;58.364;25.582;2024-03-23T03:43:42;0.38;;;0.20;;
59766;SDS011;46248;58.364;25.582;2024-03-23T03:47:04;0.00;;;0.00;;
59766;SDS011;46248;58.364;25.582;2024-03-23T03:50:26;0.28;;;0.10;;
59766;SDS011;46248;58.364;25.582;2024-03-23T03:53:48;0.00;;;0.00;;
59766;SDS011;46248;58.364;25.582;2024-03-23T03:57:10;0.10;;;0.10;;
59766;SDS011;46248;58.364;25.582;2024-03-23T04:00:32;0.00;;;0.00;;
59766;SDS011;46248;58.364;25.582;2024-03-23T04:03:54;0.10;;;0.00;;
59766;SDS011;46248;58.364;25.582;2024-03-23T04:07:15;0.00;;;0.00;;
59766;SDS011;46248;58.364;25.582;2024-03-23T04:10:37;0.00;;;0.00;;
59766;SDS011;46248;58.364;25.582;2024-03-23T04:13:58;0.00;;;0.00;;
59766;SDS011;46248;58.364;25.582;2024-03-23T04:17:20;0.10;;;0.00;;
59766;SDS011;46248;58.364;25.582;2024-03-23T04:20:41;0.00;;;0.00;;
59766;SDS011;46248;58.364;25.582;2024-03-23T04:24:04;0.20;;;0.10;;
59766;SDS011;46248;58.364;25.582;2024-03-23T04:27:26;0.57;;;0.05;;
59766;SDS011;46248;58.364;25.582;2024-03-23T04:30:47;0.00;;;0.00;;
59766;SDS011;46248;58.364;25.582;2024-03-23T04:34:09;0.10;;;0.00;;
59766;SDS011;46248;58.364;25.582;2024-03-23T04:37:34;0.10;;;0.00;;
59766;SDS011;46248;58.364;25.582;2024-03-23T04:40:56;0.00;;;0.00;;
59766;SDS011;46248;58.364;25.582;2024-03-23T04:44:18;0.45;;;0.20;;
59766;SDS011;46248;58.364;25.582;2024-03-23T04:47:40;0.10;;;0.00;;
59766;SDS011;46248;58.364;25.582;2024-03-23T04:51:02;0.17;;;0.00;;
59766;SDS011;46248;58.364;25.582;2024-03-23T04:54:24;0.10;;;0.10;;
59766;SDS011;46248;58.364;25.582;2024-03-23T04:57:45;0.68;;;0.03;;
59766;SDS011;46248;58.364;25.582;2024-03-23T05:01:07;0.00;;;0.00;;
59766;SDS011;46248;58.364;25.582;2024-03-23T05:04:28;0.43;;;0.00;;
59766;SDS011;46248;58.364;25.582;2024-03-23T05:07:52;0.30;;;0.08;;
59766;SDS011;46248;58.364;25.582;2024-03-23T05:11:13;0.00;;;0.00;;
59766;SDS011;46248;58.364;25.582;2024-03-23T05:14:34;0.00;;;0.00;;
59766;SDS011;46248;58.364;25.582;2024-03-23T05:17:56;0.28;;;0.08;;
59766;SDS011;46248;58.364;25.582;2024-03-23T05:21:17;0.00;;;0.00;;
59766;SDS011;46248;58.364;25.582;2024-03-23T05:24:39;0.40;;;0.05;;
59766;SDS011;46248;58.364;25.582;2024-03-23T05:28:01;0.10;;;0.00;;
59766;SDS011;46248;58.364;25.582;2024-03-23T05:31:25;0.32;;;0.00;;
59766;SDS011;46248;58.364;25.582;2024-03-23T05:34:48;0.15;;;0.05;;
59766;SDS011;46248;58.364;25.582;2024-03-23T05:38:16;0.20;;;0.10;;
59766;SDS011;46248;58.364;25.582;2024-03-23T05:41:39;0.00;;;0.00;;
59766;SDS011;46248;58.364;25.582;2024-03-23T05:45:00;0.10;;;0.08;;
59766;SDS011;46248;58.364;25.582;2024-03-23T05:48:21;0.35;;;0.00;;
59766;SDS011;46248;58.364;25.582;2024-03-23T05:51:44;0.00;;;0.00;;
59766;SDS011;46248;58.364;25.582;2024-03-23T05:55:05;0.00;;;0.00;;
59766;SDS011;46248;58.364;25.582;2024-03-23T05:58:27;0.20;;;0.00;;
59766;SDS011;46248;58.364;25.582;2024-03-23T06:01:48;0.08;;;0.08;;
59766;SDS011;46248;58.364;25.582;2024-03-23T06:05:10;0.38;;;0.00;;
59766;SDS011;46248;58.364;25.582;2024-03-23T06:08:32;0.55;;;0.00;;
59766;SDS011;46248;58.364;25.582;2024-03-23T06:11:53;0.10;;;0.00;;
59766;SDS011;46248;58.364;25.582;2024-03-23T06:15:15;0.10;;;0.00;;
59766;SDS011;46248;58.364;25.582;2024-03-23T06:18:37;0.40;;;0.05;;
59766;SDS011;46248;58.364;25.582;2024-03-23T06:22:00;0.30;;;0.00;;
59766;SDS011;46248;58.364;25.582;2024-03-23T06:25:22;0.20;;;0.10;;
59766;SDS011;46248;58.364;25.582;2024-03-23T06:28:44;0.10;;;0.10;;
59766;SDS011;46248;58.364;25.582;2024-03-23T06:32:06;0.22;;;0.00;;
59766;SDS011;46248;58.364;25.582;2024-03-23T06:35:27;0.00;;;0.00;;
59766;SDS011;46248;58.364;25.582;2024-03-23T06:38:48;0.08;;;0.05;;
59766;SDS011;46248;58.364;25.582;2024-03-23T06:42:10;0.17;;;0.03;;
59766;SDS011;46248;58.364;25.582;2024-03-23T06:45:31;0.15;;;0.10;;
59766;SDS011;46248;58.364;25.582;2024-03-23T06:48:52;0.00;;;0.00;;
59766;SDS011;46248;58.364;25.582;2024-03-23T06:52:14;0.03;;;0.00;;
59766;SDS011;46248;58.364;25.582;2024-03-23T06:55:35;0.00;;;0.00;;
59766;SDS011;46248;58.364;25.582;2024-03-23T06:58:57;0.00;;;0.00;;
59766;SDS011;46248;58.364;25.582;2024-03-23T07:02:19;0.10;;;0.10;;
59766;SDS011;46248;58.364;25.582;2024-03-23T07:05:40;0.13;;;0.08;;
59766;SDS011;46248;58.364;25.582;2024-03-23T07:09:02;0.00;;;0.00;;
59766;SDS011;46248;58.364;25.582;2024-03-23T07:12:23;0.15;;;0.13;;
59766;SDS011;46248;58.364;25.582;2024-03-23T07:15:50;0.55;;;0.00;;
59766;SDS011;46248;58.364;25.582;2024-03-23T07:19:13;0.22;;;0.00;;
59766;SDS011;46248;58.364;25.582;2024-03-23T07:22:36;0.10;;;0.00;;
59766;SDS011;46248;58.364;25.582;2024-03-23T07:26:04;0.60;;;0.10;;
59766;SDS011;46248;58.364;25.582;2024-03-23T07:29:26;0.00;;;0.00;;
59766;SDS011;46248;58.364;25.582;2024-03-23T07:32:48;0.20;;;0.10;;
59766;SDS011;46248;58.364;25.582;2024-03-23T07:36:09;0.03;;;0.03;;
59766;SDS011;46248;58.364;25.582;2024-03-23T07:39:31;0.00;;;0.00;;
59766;SDS011;46248;58.364;25.582;2024-03-23T07:42:53;0.30;;;0.10;;
59766;SDS011;46248;58.364;25.582;2024-03-23T07:46:15;0.00;;;0.00;;
59766;SDS011;46248;58.364;25.582;2024-03-23T07:49:58;0.08;;;0.00;;
59766;SDS011;46248;58.364;25.582;2024-03-23T07:53:19;0.10;;;0.00;;
59766;SDS011;46248;58.364;25.582;2024-03-23T07:56:39;0.10;;;0.08;;
59766;SDS011;46248;58.364;25.582;2024-03-23T08:00:00;0.32;;;0.08;;
59766;SDS011;46248;58.364;25.582;2024-03-23T08:03:21;0.57;;;0.10;;
59766;SDS011;46248;58.364;25.582;2024-03-23T08:06:41;0.20;;;0.20;;
59766;SDS011;46248;58.364;25.582;2024-03-23T08:10:02;0.13;;;0.10;;
59766;SDS011;46248;58.364;25.582;2024-03-23T08:13:23;0.10;;;0.10;;
59766;SDS011;46248;58.364;25.582;2024-03-23T08:16:44;0.15;;;0.10;;
59766;SDS011;46248;58.364;25.582;2024-03-23T08:20:09;0.10;;;0.10;;
59766;SDS011;46248;58.364;25.582;2024-03-23T08:23:30;0.28;;;0.10;;
59766;SDS011;46248;58.364;25.582;2024-03-23T08:26:54;0.17;;;0.00;;
59766;SDS011;46248;58.364;25.582;2024-03-23T08:30:15;0.20;;;0.10;;
59766;SDS011;46248;58.364;25.582;2024-03-23T08:33:35;0.20;;;0.17;;
59766;SDS011;46248;58.364;25.582;2024-03-23T08:36:56;0.00;;;0.00;;
59766;SDS011;46248;58.364;25.582;2024-03-23T08:40:17;0.03;;;0.00;;
59766;SDS011;46248;58.364;25.582;2024-03-23T08:47:02;0.20;;;0.10;;
59766;SDS011;46248;58.364;25.582;2024-03-23T08:50:23;0.25;;;0.10;;
59766;SDS011;46248;58.364;25.582;2024-03-23T08:53:44;1.35;;;0.10;;
59766;SDS011;46248;58.364;25.582;2024-03-23T08:57:05;1.13;;;0.40;;
59766;SDS011;46248;58.364;25.582;2024-03-23T09:00:27;0.25;;;0.17;;
59766;SDS011;46248;58.364;25.582;2024-03-23T09:03:47;0.35;;;0.20;;
59766;SDS011;46248;58.364;25.582;2024-03-23T09:07:08;0.40;;;0.20;;
59766;SDS011;46248;58.364;25.582;2024-03-23T09:10:29;1.05;;;0.30;;
59766;SDS011;46248;58.364;25.582;2024-03-23T09:13:49;0.88;;;0.32;;
59766;SDS011;46248;58.364;25.582;2024-03-23T09:17:10;0.68;;;0.32;;
59766;SDS011;46248;58.364;25.582;2024-03-23T09:20:33;0.60;;;0.30;;
59766;SDS011;46248;58.364;25.582;2024-03-23T09:23:54;2.50;;;0.50;;
59766;SDS011;46248;58.364;25.582;2024-03-23T09:27:14;6.22;;;0.80;;
59766;SDS011;46248;58.364;25.582;2024-03-23T09:30:35;0.95;;;0.35;;
59766;SDS011;46248;58.364;25.582;2024-03-23T09:34:02;2.10;;;0.60;;
59766;SDS011;46248;58.364;25.582;2024-03-23T09:37:22;1.90;;;0.50;;
59766;SDS011;46248;58.364;25.582;2024-03-23T09:40:43;1.75;;;0.30;;
59766;SDS011;46248;58.364;25.582;2024-03-23T09:44:04;1.00;;;0.40;;
59766;SDS011;46248;58.364;25.582;2024-03-23T09:47:25;1.95;;;0.52;;
59766;SDS011;46248;58.364;25.582;2024-03-23T09:50:46;0.30;;;0.30;;
59766;SDS011;46248;58.364;25.582;2024-03-23T09:54:08;0.82;;;0.40;;
59766;SDS011;46248;58.364;25.582;2024-03-23T09:57:28;2.83;;;0.50;;
59766;SDS011;46248;58.364;25.582;2024-03-23T10:00:49;1.02;;;0.40;;
59766;SDS011;46248;58.364;25.582;2024-03-23T10:04:35;0.75;;;0.40;;
59766;SDS011;46248;58.364;25.582;2024-03-23T10:11:34;0.93;;;0.40;;
59766;SDS011;46248;58.364;25.582;2024-03-23T10:14:54;4.95;;;0.80;;
59766;SDS011;46248;58.364;25.582;2024-03-23T10:21:35;0.45;;;0.30;;
59766;SDS011;46248;58.364;25.582;2024-03-23T10:24:56;0.85;;;0.40;;
59766;SDS011;46248;58.364;25.582;2024-03-23T10:28:28;0.55;;;0.43;;
59766;SDS011;46248;58.364;25.582;2024-03-23T10:31:48;2.17;;;0.50;;
59766;SDS011;46248;58.364;25.582;2024-03-23T10:35:19;2.33;;;0.40;;
59766;SDS011;46248;58.364;25.582;2024-03-23T10:38:44;1.92;;;0.40;;
59766;SDS011;46248;58.364;25.582;2024-03-23T10:42:08;1.38;;;0.40;;
59766;SDS011;46248;58.364;25.582;2024-03-23T10:45:34;1.65;;;0.45;;
59766;SDS011;46248;58.364;25.582;2024-03-23T10:48:55;1.00;;;0.43;;
59766;SDS011;46248;58.364;25.582;2024-03-23T10:52:15;0.38;;;0.30;;
59766;SDS011;46248;58.364;25.582;2024-03-23T10:55:36;0.73;;;0.40;;
59766;SDS011;46248;58.364;25.582;2024-03-23T10:58:57;1.83;;;0.68;;
59766;SDS011;46248;58.364;25.582;2024-03-23T11:02:18;1.67;;;0.55;;
59766;SDS011;46248;58.364;25.582;2024-03-23T11:05:46;0.68;;;0.50;;
59766;SDS011;46248;58.364;25.582;2024-03-23T11:16:36;1.25;;;0.50;;
59766;SDS011;46248;58.364;25.582;2024-03-23T11:20:00;0.90;;;0.70;;
59766;SDS011;46248;58.364;25.582;2024-03-23T11:23:28;0.65;;;0.45;;
59766;SDS011;46248;58.364;25.582;2024-03-23T11:26:48;0.75;;;0.40;;
59766;SDS011;46248;58.364;25.582;2024-03-23T11:30:11;0.98;;;0.40;;
59766;SDS011;46248;58.364;25.582;2024-03-23T11:33:33;0.88;;;0.30;;
59766;SDS011;46248;58.364;25.582;2024-03-23T11:37:03;1.00;;;0.40;;
59766;SDS011;46248;58.364;25.582;2024-03-23T11:40:25;0.77;;;0.40;;
59766;SDS011;46248;58.364;25.582;2024-03-23T11:43:45;0.40;;;0.32;;
59766;SDS011;46248;58.364;25.582;2024-03-23T11:47:09;0.35;;;0.13;;
59766;SDS011;46248;58.364;25.582;2024-03-23T11:50:31;0.17;;;0.17;;
59766;SDS011;46248;58.364;25.582;2024-03-23T11:53:51;0.40;;;0.30;;
59766;SDS011;46248;58.364;25.582;2024-03-23T11:57:12;0.25;;;0.20;;
59766;SDS011;46248;58.364;25.582;2024-03-23T12:00:32;0.43;;;0.25;;
59766;SDS011;46248;58.364;25.582;2024-03-23T12:03:54;0.22;;;0.10;;
59766;SDS011;46248;58.364;25.582;2024-03-23T12:07:15;0.98;;;0.38;;
59766;SDS011;46248;58.364;25.582;2024-03-23T12:10:36;0.60;;;0.30;;
59766;SDS011;46248;58.364;25.582;2024-03-23T12:13:56;1.00;;;0.38;;
59766;SDS011;46248;58.364;25.582;2024-03-23T12:17:19;1.15;;;0.30;;
59766;SDS011;46248;58.364;25.582;2024-03-23T12:20:41;0.50;;;0.30;;
59766;SDS011;46248;58.364;25.582;2024-03-23T12:24:02;0.52;;;0.32;;
59766;SDS011;46248;58.364;25.582;2024-03-23T12:27:23;0.40;;;0.10;;
59766;SDS011;46248;58.364;25.582;2024-03-23T12:30:43;0.20;;;0.15;;
59766;SDS011;46248;58.364;25.582;2024-03-23T12:34:04;0.32;;;0.20;;
59766;SDS011;46248;58.364;25.582;2024-03-23T12:37:24;0.20;;;0.20;;
59766;SDS011;46248;58.364;25.582;2024-03-23T12:40:48;0.35;;;0.10;;
59766;SDS011;46248;58.364;25.582;2024-03-23T12:44:09;0.10;;;0.10;;
59766;SDS011;46248;58.364;25.582;2024-03-23T12:47:31;0.30;;;0.20;;
59766;SDS011;46248;58.364;25.582;2024-03-23T12:50:54;0.40;;;0.25;;
59766;SDS011;46248;58.364;25.582;2024-03-23T12:54:15;0.10;;;0.10;;
59766;SDS011;46248;58.364;25.582;2024-03-23T12:57:35;0.10;;;0.10;;
59766;SDS011;46248;58.364;25.582;2024-03-23T13:00:57;0.20;;;0.10;;
59766;SDS011;46248;58.364;25.582;2024-03-23T13:04:18;0.10;;;0.10;;
59766;SDS011;46248;58.364;25.582;2024-03-23T13:07:39;0.20;;;0.17;;
59766;SDS011;46248;58.364;25.582;2024-03-23T13:11:00;0.20;;;0.10;;
59766;SDS011;46248;58.364;25.582;2024-03-23T13:14:20;0.10;;;0.10;;
59766;SDS011;46248;58.364;25.582;2024-03-23T13:17:41;0.22;;;0.10;;
59766;SDS011;46248;58.364;25.582;2024-03-23T13:21:02;0.22;;;0.10;;
59766;SDS011;46248;58.364;25.582;2024-03-23T13:24:24;0.00;;;0.00;;
59766;SDS011;46248;58.364;25.582;2024-03-23T13:27:45;0.15;;;0.10;;
59766;SDS011;46248;58.364;25.582;2024-03-23T13:31:06;0.00;;;0.00;;
59766;SDS011;46248;58.364;25.582;2024-03-23T13:34:26;0.50;;;0.13;;
59766;SDS011;46248;58.364;25.582;2024-03-23T13:37:47;0.10;;;0.10;;
59766;SDS011;46248;58.364;25.582;2024-03-23T13:41:08;0.10;;;0.10;;
59766;SDS011;46248;58.364;25.582;2024-03-23T13:44:32;0.10;;;0.08;;
59766;SDS011;46248;58.364;25.582;2024-03-23T13:47:52;1.17;;;0.10;;
59766;SDS011;46248;58.364;25.582;2024-03-23T13:51:13;0.25;;;0.08;;
59766;SDS011;46248;58.364;25.582;2024-03-23T13:54:33;0.15;;;0.15;;
59766;SDS011;46248;58.364;25.582;2024-03-23T13:57:54;0.03;;;0.03;;
59766;SDS011;46248;58.364;25.582;2024-03-23T14:01:14;0.17;;;0.10;;
59766;SDS011;46248;58.364;25.582;2024-03-23T14:04:35;0.00;;;0.00;;
59766;SDS011;46248;58.364;25.582;2024-03-23T14:07:58;0.20;;;0.10;;
59766;SDS011;46248;58.364;25.582;2024-03-23T14:11:18;0.10;;;0.10;;
59766;SDS011;46248;58.364;25.582;2024-03-23T14:14:39;0.05;;;0.00;;
59766;SDS011;46248;58.364;25.582;2024-03-23T14:17:59;0.10;;;0.05;;
59766;SDS011;46248;58.364;25.582;2024-03-23T14:21:20;0.10;;;0.10;;
59766;SDS011;46248;58.364;25.582;2024-03-23T14:24:40;0.03;;;0.03;;
59766;SDS011;46248;58.364;25.582;2024-03-23T14:28:01;0.20;;;0.20;;
59766;SDS011;46248;58.364;25.582;2024-03-23T14:31:21;0.00;;;0.00;;
59766;SDS011;46248;58.364;25.582;2024-03-23T14:34:41;0.15;;;0.03;;
59766;SDS011;46248;58.364;25.582;2024-03-23T14:38:02;0.30;;;0.10;;
59766;SDS011;46248;58.364;25.582;2024-03-23T14:41:23;0.10;;;0.00;;
59766;SDS011;46248;58.364;25.582;2024-03-23T14:44:43;0.68;;;0.10;;
59766;SDS011;46248;58.364;25.582;2024-03-23T14:48:03;0.75;;;0.10;;
59766;SDS011;46248;58.364;25.582;2024-03-23T14:51:24;0.25;;;0.10;;
59766;SDS011;46248;58.364;25.582;2024-03-23T14:54:44;0.20;;;0.10;;
59766;SDS011;46248;58.364;25.582;2024-03-23T14:58:05;0.65;;;0.10;;
59766;SDS011;46248;58.364;25.582;2024-03-23T15:01:26;0.15;;;0.10;;
59766;SDS011;46248;58.364;25.582;2024-03-23T15:04:46;0.10;;;0.10;;
59766;SDS011;46248;58.364;25.582;2024-03-23T15:08:07;0.00;;;0.00;;
59766;SDS011;46248;58.364;25.582;2024-03-23T15:11:27;0.20;;;0.20;;
59766;SDS011;46248;58.364;25.582;2024-03-23T15:14:48;0.05;;;0.05;;
59766;SDS011;46248;58.364;25.582;2024-03-23T15:18:09;0.20;;;0.10;;
59766;SDS011;46248;58.364;25.582;2024-03-23T15:21:33;0.10;;;0.10;;
59766;SDS011;46248;58.364;25.582;2024-03-23T15:24:54;0.10;;;0.10;;
59766;SDS011;46248;58.364;25.582;2024-03-23T15:28:15;0.10;;;0.10;;
59766;SDS011;46248;58.364;25.582;2024-03-23T15:31:35;0.10;;;0.10;;
59766;SDS011;46248;58.364;25.582;2024-03-23T15:34:56;0.15;;;0.10;;
59766;SDS011;46248;58.364;25.582;2024-03-23T15:38:16;0.10;;;0.10;;
59766;SDS011;46248;58.364;25.582;2024-03-23T15:41:38;1.17;;;0.20;;
59766;SDS011;46248;58.364;25.582;2024-03-23T15:44:59;0.20;;;0.20;;
59766;SDS011;46248;58.364;25.582;2024-03-23T15:48:22;1.15;;;0.30;;
59766;SDS011;46248;58.364;25.582;2024-03-23T15:51:48;1.13;;;0.40;;
59766;SDS011;46248;58.364;25.582;2024-03-23T15:55:17;4.40;;;1.10;;
59766;SDS011;46248;58.364;25.582;2024-03-23T15:58:44;3.50;;;1.65;;
59766;SDS011;46248;58.364;25.582;2024-03-23T16:02:13;4.95;;;2.97;;
59766;SDS011;46248;58.364;25.582;2024-03-23T16:05:49;5.22;;;2.95;;
59766;SDS011;46248;58.364;25.582;2024-03-23T16:09:41;8.32;;;4.43;;
59766;SDS011;46248;58.364;25.582;2024-03-23T16:16:54;6.22;;;3.40;;
59766;SDS011;46248;58.364;25.582;2024-03-23T16:20:19;8.05;;;2.75;;
59766;SDS011;46248;58.364;25.582;2024-03-23T16:23:41;13.25;;;3.40;;
59766;SDS011;46248;58.364;25.582;2024-03-23T16:27:04;12.18;;;3.13;;
59766;SDS011;46248;58.364;25.582;2024-03-23T16:30:25;11.13;;;3.80;;
59766;SDS011;46248;58.364;25.582;2024-03-23T16:33:45;8.82;;;3.67;;
59766;SDS011;46248;58.364;25.582;2024-03-23T16:37:05;9.05;;;3.70;;
59766;SDS011;46248;58.364;25.582;2024-03-23T16:40:30;5.63;;;3.20;;
59766;SDS011;46248;58.364;25.582;2024-03-23T16:43:51;8.18;;;3.95;;
59766;SDS011;46248;58.364;25.582;2024-03-23T16:47:11;4.65;;;2.60;;
59766;SDS011;46248;58.364;25.582;2024-03-23T16:50:34;5.72;;;2.63;;
59766;SDS011;46248;58.364;25.582;2024-03-23T16:53:55;4.15;;;2.28;;
59766;SDS011;46248;58.364;25.582;2024-03-23T16:57:19;4.60;;;2.25;;
59766;SDS011;46248;58.364;25.582;2024-03-23T17:00:40;6.68;;;2.50;;
59766;SDS011;46248;58.364;25.582;2024-03-23T17:04:00;6.68;;;2.53;;
59766;SDS011;46248;58.364;25.582;2024-03-23T17:07:21;3.63;;;1.63;;
59766;SDS011;46248;58.364;25.582;2024-03-23T17:10:42;4.40;;;2.20;;
59766;SDS011;46248;58.364;25.582;2024-03-23T17:14:03;3.33;;;1.73;;
59766;SDS011;46248;58.364;25.582;2024-03-23T17:17:23;2.63;;;1.50;;
59766;SDS011;46248;58.364;25.582;2024-03-23T17:20:44;3.10;;;1.80;;
59766;SDS011;46248;58.364;25.582;2024-03-23T17:24:04;2.55;;;1.63;;
59766;SDS011;46248;58.364;25.582;2024-03-23T17:27:25;2.00;;;1.50;;
59766;SDS011;46248;58.364;25.582;2024-03-23T17:30:46;4.03;;;1.50;;
59766;SDS011;46248;58.364;25.582;2024-03-23T17:34:07;2.75;;;1.60;;
59766;SDS011;46248;58.364;25.582;2024-03-23T17:37:28;1.85;;;0.93;;
59766;SDS011;46248;58.364;25.582;2024-03-23T17:40:48;2.78;;;1.48;;
59766;SDS011;46248;58.364;25.582;2024-03-23T17:44:09;1.58;;;1.42;;
59766;SDS011;46248;58.364;25.582;2024-03-23T17:47:36;3.42;;;1.30;;
59766;SDS011;46248;58.364;25.582;2024-03-23T17:51:03;2.53;;;1.33;;
59766;SDS011;46248;58.364;25.582;2024-03-23T17:54:24;2.33;;;1.50;;
59766;SDS011;46248;58.364;25.582;2024-03-23T17:57:45;2.35;;;1.33;;
59766;SDS011;46248;58.364;25.582;2024-03-23T18:01:06;1.20;;;1.08;;
59766;SDS011;46248;58.364;25.582;2024-03-23T18:04:27;1.30;;;1.10;;
59766;SDS011;46248;58.364;25.582;2024-03-23T18:07:48;1.65;;;1.30;;
59766;SDS011;46248;58.364;25.582;2024-03-23T18:11:09;1.67;;;0.90;;
59766;SDS011;46248;58.364;25.582;2024-03-23T18:14:29;1.33;;;0.95;;
59766;SDS011;46248;58.364;25.582;2024-03-23T18:17:50;1.05;;;1.00;;
59766;SDS011;46248;58.364;25.582;2024-03-23T18:21:12;0.85;;;0.80;;
59766;SDS011;46248;58.364;25.582;2024-03-23T18:24:32;1.50;;;1.13;;
59766;SDS011;46248;58.364;25.582;2024-03-23T18:27:53;1.38;;;0.70;;
59766;SDS011;46248;58.364;25.582;2024-03-23T18:31:14;0.88;;;0.70;;
59766;SDS011;46248;58.364;25.582;2024-03-23T18:34:34;0.85;;;0.82;;
59766;SDS011;46248;58.364;25.582;2024-03-23T18:37:54;1.45;;;0.80;;
59766;SDS011;46248;58.364;25.582;2024-03-23T18:41:16;0.98;;;0.90;;
59766;SDS011;46248;58.364;25.582;2024-03-23T18:44:37;0.73;;;0.50;;
59766;SDS011;46248;58.364;25.582;2024-03-23T18:47:57;0.60;;;0.60;;
59766;SDS011;46248;58.364;25.582;2024-03-23T18:51:18;0.95;;;0.70;;
59766;SDS011;46248;58.364;25.582;2024-03-23T18:54:39;0.70;;;0.60;;
59766;SDS011;46248;58.364;25.582;2024-03-23T18:57:59;0.40;;;0.40;;
59766;SDS011;46248;58.364;25.582;2024-03-23T19:01:20;1.27;;;0.60;;
59766;SDS011;46248;58.364;25.582;2024-03-23T19:04:40;0.52;;;0.50;;
59766;SDS011;46248;58.364;25.582;2024-03-23T19:08:01;0.73;;;0.63;;
59766;SDS011;46248;58.364;25.582;2024-03-23T19:11:23;0.40;;;0.40;;
59766;SDS011;46248;58.364;25.582;2024-03-23T19:14:44;0.50;;;0.40;;
59766;SDS011;46248;58.364;25.582;2024-03-23T19:18:05;0.82;;;0.32;;
59766;SDS011;46248;58.364;25.582;2024-03-23T19:21:25;0.40;;;0.40;;
59766;SDS011;46248;58.364;25.582;2024-03-23T19:24:46;0.75;;;0.57;;
59766;SDS011;46248;58.364;25.582;2024-03-23T19:28:07;0.47;;;0.40;;
59766;SDS011;46248;58.364;25.582;2024-03-23T19:31:27;0.40;;;0.40;;
59766;SDS011;46248;58.364;25.582;2024-03-23T19:34:48;0.30;;;0.30;;
59766;SDS011;46248;58.364;25.582;2024-03-23T19:38:09;0.80;;;0.50;;
59766;SDS011;46248;58.364;25.582;2024-03-23T19:41:29;0.75;;;0.47;;
59766;SDS011;46248;58.364;25.582;2024-03-23T19:44:50;0.47;;;0.38;;
59766;SDS011;46248;58.364;25.582;2024-03-23T19:48:10;0.47;;;0.47;;
59766;SDS011;46248;58.364;25.582;2024-03-23T19:51:31;0.52;;;0.50;;
59766;SDS011;46248;58.364;25.582;2024-03-23T19:54:51;0.90;;;0.45;;
59766;SDS011;46248;58.364;25.582;2024-03-23T19:58:12;0.40;;;0.40;;
59766;SDS011;46248;58.364;25.582;2024-03-23T20:01:32;0.50;;;0.30;;
59766;SDS011;46248;58.364;25.582;2024-03-23T20:04:52;0.47;;;0.45;;
59766;SDS011;46248;58.364;25.582;2024-03-23T20:08:13;0.22;;;0.22;;
59766;SDS011;46248;58.364;25.582;2024-03-23T20:11:33;0.30;;;0.30;;
59766;SDS011;46248;58.364;25.582;2024-03-23T20:14:53;0.30;;;0.30;;
59766;SDS011;46248;58.364;25.582;2024-03-23T20:18:15;0.20;;;0.20;;
59766;SDS011;46248;58.364;25.582;2024-03-23T20:21:35;0.35;;;0.32;;
59766;SDS011;46248;58.364;25.582;2024-03-23T20:24:56;0.30;;;0.30;;
59766;SDS011;46248;58.364;25.582;2024-03-23T20:28:17;0.20;;;0.20;;
59766;SDS011;46248;58.364;25.582;2024-03-23T20:31:39;0.10;;;0.10;;
59766;SDS011;46248;58.364;25.582;2024-03-23T20:35:00;0.20;;;0.20;;
59766;SDS011;46248;58.364;25.582;2024-03-23T20:38:20;0.20;;;0.20;;
59766;SDS011;46248;58.364;25.582;2024-03-23T20:41:41;0.50;;;0.30;;
59766;SDS011;46248;58.364;25.582;2024-03-23T20:45:03;0.20;;;0.20;;
59766;SDS011;46248;58.364;25.582;2024-03-23T20:48:25;0.20;;;0.20;;
59766;SDS011;46248;58.364;25.582;2024-03-23T20:51:46;0.22;;;0.15;;
59766;SDS011;46248;58.364;25.582;2024-03-23T20:55:07;0.20;;;0.20;;
59766;SDS011;46248;58.364;25.582;2024-03-23T20:58:30;0.10;;;0.10;;
59766;SDS011;46248;58.364;25.582;2024-03-23T21:01:51;0.22;;;0.20;;
59766;SDS011;46248;58.364;25.582;2024-03-23T21:05:12;0.20;;;0.20;;
59766;SDS011;46248;58.364;25.582;2024-03-23T21:08:32;0.25;;;0.10;;
59766;SDS011;46248;58.364;25.582;2024-03-23T21:11:54;0.10;;;0.10;;